Terminal Aerodrome Forecast
Issued by NWS Mt. Holly, NJ

Home | Current Version | Previous Version | Text Only | Print | Product List | Glossary On
Versions: 1 2 3 4 5 6 7 8 9 10 11 12 13 14 15 16 17 18 19
575
FTUS41 KPHI 031734
TAFACY
TAF
KACY 031734Z 0318/0418 31020G30KT P6SM BKN050
     FM032200 32015G23KT P6SM SCT050
     FM040000 30008KT P6SM SCT050
     FM040400 32006KT P6SM BKN050
     FM040900 32004KT P6SM SCT050
     FM041400 33008KT P6SM SKC=

USA.gov is the U.S. government's official web portal to all federal, state and local government web resources and services.